• Join FlightAware (Why Join?)
  • Login
  • US Flag 
12:37AM EDT


 

Airport Tracker/Info


-or-


 

Live Flight TrackerFlight Track Log ✈ ASQ5547 ✈ 04-May-2013 ✈ KMGM - KATL

Flight Track Log - Related Links

Times and Time Zones

All times are in EDT time to prevent confusion due to time zone crossing. See the ASQ5547 flight status page for this flight to view local times or setup timezone preferences in your user account.

Time Position Orientation Groundspeed Altitude Reporting Facility
EDT Latitude Longitude Course Direction KTS MPH feet Rate Location/Type
10:34AM 32.3592 -86.4706 55° Northeast 243 280 5,400  Level Atlanta Center
10:35AM 32.4089 -86.3908 54° Northeast 286 329 7,200 2,220 Climbing Atlanta Center
10:36AM 32.4542 -86.3083 57° Northeast 298 343 9,900 2,580 Climbing Atlanta Center
10:37AM 32.5058 -86.2186 56° Northeast 304 350 12,400 2,100 Climbing Atlanta Center
10:38AM 32.5533 -86.1261 59° Northeast 316 364 14,200 1,800 Climbing Atlanta Center
10:39AM 32.5704 -85.9384 55° Northeast  Level FlightAware Approximate
10:39AM 32.6072 -86.0286 57° Northeast 327 376 16,000  Level Atlanta Center
10:40AM 32.6152 -85.8635 55° Northeast  Level FlightAware Approximate
10:40AM 32.6611 -85.9289 57° Northeast 346 398 17,800  Level Atlanta Center
10:41AM 32.7147 -85.8286 58° Northeast 351 404 19,000 600 Climbing Atlanta Center
10:42AM 32.7433 -85.7206 72° East 346 398 19,000  Level Atlanta Center
10:43AM 32.7553 -85.6072 83° East 335 386 19,000  Level Atlanta Center
10:44AM 32.7669 -85.4939 83° East 335 386 19,000  Level Atlanta Center
10:45AM 32.7892 -85.3856 76° East 335 386 19,000  Level Atlanta Center
10:46AM 32.8692 -85.3150 37° Northeast 319 367 19,000 -360 Level Atlanta Center
10:47AM 32.9556 -85.2519 31° Northeast 331 381 18,300 -1,440 Descending Atlanta Center
10:48AM 33.0375 -85.1861 34° Northeast 347 399 16,200 -2,040 Descending Atlanta Center
10:49AM 33.1028 -85.1175 41° Northeast 347 399 14,300 -2,040 Descending Atlanta Center
10:50AM 33.1703 -85.0464 41° Northeast 341 392 12,200 -1,560 Descending Atlanta Center
10:51AM 33.2314 -84.9700 46° Northeast 323 372 11,200 -1,440 Descending Atlanta Center
10:52AM 33.3131 -84.9261 24° Northeast 312 359 9,400 -1,620 Descending Atlanta Center
10:53AM 33.3989 -84.8997 14° North 311 358 8,000 -720 Descending Atlanta Center
10:54AM 33.4844 -84.8906 North 316 364 8,000 -300 Level Atlanta Center
10:55AM 33.5594 -84.8989 355° North 288 331 7,400 -540 Descending Atlanta Center
10:56AM 33.6283 -84.8994 360° North 245 282 7,000 -480 Descending Atlanta Center
10:57AM 33.6333 -84.8500 83° East 146 168 6,600 -300 Descending Atlanta TRACON
10:58AM 33.6333 -84.8000 90° East 149 171 6,500 -300 Descending Atlanta TRACON
10:59AM 33.6333 -84.7500 90° East 157 181 6,000 -660 Descending Atlanta TRACON
11:00AM 33.6333 -84.7000 90° East 144 166 5,200 -840 Descending Atlanta TRACON
11:01AM 33.6333 -84.6500 90° East 130 150 4,400 -720 Descending Atlanta TRACON
11:02AM 33.6333 -84.6167 90° East 127 146 3,800 -720 Descending Atlanta TRACON
11:03AM 33.6333 -84.5667 90° East 138 159 3,100 -780 Descending Atlanta TRACON
11:04AM 33.6333 -84.5167 90° East 141 162 2,300 -720 Descending Atlanta TRACON
11:05AM 33.6333 -84.4833 90° East 121 139 1,700 -600 Descending Atlanta TRACON
11:07AM 33.6367 -84.4279 87° East  Level Estimated
11:14AM 33.6367 -84.4279 87° East  Level Estimated
11:15AM 33.6367 -84.4279 87° East  Level Estimated